Aviation Digital Data Service (ADDS)

Output produced by METARs form (0852 UTC 29 August 2016)
found at http://aviationweather.gov/adds/metars/
 
KSLK 290520Z 2906/3006 24006KT P6SM SCT025 
     FM290800 27007KT P6SM BKN020 
     TEMPO 2909/2912 OVC009 
     FM291300 29007KT P6SM BKN025 
     FM291500 29008KT P6SM BKN035 
     FM300000 VRB03KT P6SM FEW150